createdAt,value
2017-10-02T00:00:50.821Z,94.21
2017-10-02T00:03:19.148Z,94.31
2017-10-02T00:05:47.518Z,94.20
2017-10-02T00:08:15.825Z,94.26
2017-10-02T00:10:44.158Z,94.28
2017-10-02T00:13:12.494Z,94.17
2017-10-02T00:15:40.845Z,94.24
2017-10-02T00:18:09.149Z,94.15
2017-10-02T00:20:37.461Z,94.27
2017-10-02T00:23:05.786Z,94.20
2017-10-02T00:25:34.086Z,94.17
2017-10-02T00:28:02.410Z,94.33
2017-10-02T00:30:30.715Z,94.37
2017-10-02T00:32:59.033Z,94.31
2017-10-02T00:35:27.350Z,94.35
2017-10-02T00:37:55.661Z,94.22
2017-10-02T00:40:23.985Z,94.35
2017-10-02T00:42:53.797Z,94.38
2017-10-02T00:45:22.105Z,94.65
2017-10-02T00:47:50.401Z,94.76
2017-10-02T00:50:18.709Z,94.81
2017-10-02T00:52:47.043Z,94.91
2017-10-02T00:55:15.361Z,94.85
2017-10-02T00:57:43.662Z,94.92
2017-10-02T01:00:12.746Z,94.92
2017-10-02T01:02:41.054Z,94.96
2017-10-02T01:05:09.365Z,94.88
2017-10-02T01:07:37.673Z,94.88
2017-10-02T01:10:05.987Z,94.77
2017-10-02T01:12:34.306Z,94.74
2017-10-02T01:15:02.646Z,94.82
2017-10-02T01:17:30.945Z,94.77
2017-10-02T01:19:59.244Z,94.64
2017-10-02T01:22:27.584Z,94.64
2017-10-02T01:24:55.878Z,94.43
2017-10-02T01:27:24.186Z,94.22
2017-10-02T01:29:52.483Z,94.07
2017-10-02T01:32:21.565Z,94.03
2017-10-02T01:34:50.633Z,93.79
2017-10-02T01:37:19.009Z,93.83
2017-10-02T01:39:47.306Z,93.75
2017-10-02T01:42:15.636Z,93.54
2017-10-02T01:44:43.947Z,93.44
2017-10-02T01:47:12.254Z,93.36
2017-10-02T01:49:41.329Z,93.20
2017-10-02T01:52:10.053Z,93.12
2017-10-02T01:54:38.361Z,92.94
2017-10-02T01:57:06.661Z,92.78
2017-10-02T01:59:35.054Z,92.71
2017-10-02T02:02:03.389Z,92.73
2017-10-02T02:04:31.709Z,92.37
2017-10-02T02:07:00.039Z,92.22
2017-10-02T02:09:28.357Z,92.35
2017-10-02T02:11:56.690Z,92.21
2017-10-02T02:14:25.006Z,92.34
2017-10-02T02:16:53.326Z,92.24
2017-10-02T02:19:22.405Z,92.21
2017-10-02T02:21:51.484Z,91.92
2017-10-02T02:24:19.810Z,91.89
2017-10-02T02:26:48.158Z,91.92
2017-10-02T02:29:17.230Z,91.93
2017-10-02T02:31:45.560Z,91.98
2017-10-02T02:34:13.882Z,91.86
2017-10-02T02:36:42.212Z,91.90
2017-10-02T02:39:10.549Z,91.65
2017-10-02T02:41:38.870Z,91.49
2017-10-02T02:44:07.185Z,91.43
2017-10-02T02:46:35.520Z,91.33
2017-10-02T02:49:03.830Z,91.41
2017-10-02T02:51:32.142Z,91.48
2017-10-02T02:54:00.474Z,91.36
2017-10-02T02:56:28.798Z,91.37
2017-10-02T02:58:57.129Z,91.26
2017-10-02T03:01:25.460Z,91.37
2017-10-02T03:03:54.532Z,91.48
2017-10-02T03:06:22.855Z,91.42
2017-10-02T03:08:51.174Z,91.28
2017-10-02T03:11:19.499Z,91.35
2017-10-02T03:13:47.822Z,91.21
2017-10-02T03:16:16.148Z,91.47
2017-10-02T03:18:45.245Z,91.34
2017-10-02T03:21:14.353Z,91.23
2017-10-02T03:23:42.666Z,91.21
2017-10-02T03:26:10.998Z,91.08
2017-10-02T03:28:40.087Z,91.01
2017-10-02T03:31:09.175Z,91.27
2017-10-02T03:33:38.262Z,91.09
2017-10-02T03:36:06.570Z,90.97
2017-10-02T03:38:34.900Z,91.13
2017-10-02T03:41:03.211Z,91.19
2017-10-02T03:43:32.318Z,91.18
2017-10-02T03:46:00.632Z,90.85
2017-10-02T03:48:28.978Z,90.80
2017-10-02T03:50:57.281Z,90.81
2017-10-02T03:53:25.594Z,90.87
2017-10-02T03:55:53.913Z,90.63
2017-10-02T03:58:22.221Z,90.45
2017-10-02T04:00:50.549Z,90.42
2017-10-02T04:03:19.643Z,90.29
2017-10-02T04:05:48.745Z,90.11
2017-10-02T04:08:17.820Z,89.77
2017-10-02T04:10:46.189Z,89.72
2017-10-02T04:13:14.497Z,90.00
2017-10-02T04:15:43.593Z,89.83
2017-10-02T04:18:12.662Z,90.04
2017-10-02T04:20:41.003Z,89.83
2017-10-02T04:23:09.306Z,89.79
2017-10-02T04:25:37.618Z,89.95
2017-10-02T04:28:06.718Z,89.58
2017-10-02T04:30:35.796Z,89.06
2017-10-02T04:33:04.903Z,89.48
2017-10-02T04:35:33.981Z,89.43
2017-10-02T04:38:02.302Z,89.81
2017-10-02T04:40:30.602Z,90.12
2017-10-02T04:42:58.955Z,90.01
2017-10-02T04:45:27.281Z,89.78
2017-10-02T04:47:55.597Z,89.61
2017-10-02T04:50:23.917Z,89.40
2017-10-02T04:52:52.238Z,89.05
2017-10-02T04:55:21.332Z,89.20
2017-10-02T04:57:50.410Z,88.91
2017-10-02T05:00:18.721Z,88.85
2017-10-02T05:02:47.029Z,88.75
2017-10-02T05:05:15.342Z,88.76
2017-10-02T05:07:43.653Z,88.69
2017-10-02T05:10:12.048Z,88.69
2017-10-02T05:12:40.361Z,88.75
2017-10-02T05:15:08.677Z,88.40
2017-10-02T05:17:37.766Z,88.67
2017-10-02T05:20:06.860Z,88.74
2017-10-02T05:22:35.954Z,88.36
2017-10-02T05:25:05.031Z,88.67
2017-10-02T05:27:33.342Z,88.88
2017-10-02T05:30:01.654Z,89.16
2017-10-02T05:32:29.965Z,88.72
2017-10-02T05:34:58.273Z,88.29
2017-10-02T05:37:26.598Z,88.29
2017-10-02T05:39:54.905Z,88.11
2017-10-02T05:42:23.242Z,88.13
2017-10-02T05:44:51.563Z,87.89
2017-10-02T05:47:20.706Z,88.00
2017-10-02T05:49:49.021Z,87.65
2017-10-02T05:52:17.339Z,87.25
2017-10-02T05:54:45.660Z,86.92
2017-10-02T05:57:13.968Z,87.17
2017-10-02T05:59:43.081Z,86.84
2017-10-02T06:02:12.172Z,86.44
2017-10-02T06:04:41.274Z,86.37
2017-10-02T06:07:10.368Z,85.95
2017-10-02T06:09:39.477Z,85.71
2017-10-02T06:12:07.785Z,85.44
2017-10-02T06:14:36.886Z,85.34
2017-10-02T06:17:05.218Z,85.37
2017-10-02T06:19:33.554Z,85.21
2017-10-02T06:22:01.877Z,84.82
2017-10-02T06:24:30.211Z,84.89
2017-10-02T06:26:58.557Z,84.79
2017-10-02T06:29:26.879Z,84.64
2017-10-02T06:31:55.223Z,84.44
2017-10-02T06:34:23.538Z,83.75
2017-10-02T06:36:52.630Z,83.97
2017-10-02T06:39:20.937Z,83.27
2017-10-02T06:41:49.250Z,83.41
2017-10-02T06:44:17.557Z,82.93
2017-10-02T06:46:45.896Z,82.34
2017-10-02T06:49:14.214Z,82.61
2017-10-02T06:51:42.546Z,82.88
2017-10-02T06:54:10.868Z,82.84
2017-10-02T06:56:39.179Z,82.80
2017-10-02T06:59:07.715Z,82.64
2017-10-02T07:01:36.030Z,82.84
2017-10-02T07:04:04.946Z,82.13
2017-10-02T07:06:33.276Z,81.85
2017-10-02T07:09:02.369Z,81.94
2017-10-02T07:11:30.686Z,81.59
2017-10-02T07:13:59.008Z,82.38
2017-10-02T07:16:28.089Z,82.29
2017-10-02T07:18:56.426Z,82.19
2017-10-02T07:21:24.760Z,81.98
2017-10-02T07:23:53.082Z,81.80
2017-10-02T07:26:21.409Z,80.81
2017-10-02T07:28:49.734Z,80.83
2017-10-02T07:31:18.819Z,80.52
2017-10-02T07:33:47.936Z,80.72
2017-10-02T07:36:16.254Z,80.26
2017-10-02T07:38:45.375Z,79.88
2017-10-02T07:41:13.688Z,78.78
2017-10-02T07:43:42.042Z,78.84
2017-10-02T07:46:11.112Z,78.68
2017-10-02T07:48:39.438Z,79.00
2017-10-02T07:51:07.751Z,79.11
2017-10-02T07:53:36.078Z,79.35
2017-10-02T07:56:04.426Z,79.01
2017-10-02T07:58:32.734Z,79.00
2017-10-02T08:01:01.824Z,78.72
2017-10-02T08:03:30.897Z,78.38
2017-10-02T08:05:59.222Z,78.63
2017-10-02T08:08:27.540Z,77.90
2017-10-02T08:10:55.854Z,77.64
2017-10-02T08:13:24.921Z,77.60
2017-10-02T08:15:53.246Z,77.34
2017-10-02T08:18:21.567Z,78.02
2017-10-02T08:20:49.890Z,78.16
2017-10-02T08:23:18.206Z,78.95
2017-10-02T08:25:46.527Z,78.88
2017-10-02T08:28:15.598Z,79.29
2017-10-02T08:30:43.904Z,80.02
2017-10-02T08:33:12.231Z,79.52
2017-10-02T08:35:40.541Z,79.32
2017-10-02T08:38:08.849Z,80.41
2017-10-02T08:40:37.176Z,79.96
2017-10-02T08:43:05.492Z,79.88
2017-10-02T08:45:34.606Z,80.42
2017-10-02T08:48:03.186Z,80.83
2017-10-02T08:50:31.494Z,80.26
2017-10-02T08:52:59.814Z,81.33
2017-10-02T08:55:28.117Z,80.97
2017-10-02T08:57:56.440Z,81.33
2017-10-02T09:00:24.762Z,80.37
2017-10-02T09:02:53.118Z,80.78
2017-10-02T09:05:21.425Z,81.58
2017-10-02T09:07:49.759Z,80.87
2017-10-02T09:10:18.072Z,81.14
2017-10-02T09:12:46.413Z,81.14
2017-10-02T09:15:14.723Z,80.65
2017-10-02T09:17:44.055Z,81.12
2017-10-02T09:20:12.365Z,80.96
2017-10-02T09:22:40.701Z,80.88
2017-10-02T09:25:09.011Z,80.51
2017-10-02T09:27:37.346Z,81.28
2017-10-02T09:30:05.670Z,81.21
2017-10-02T09:32:34.018Z,80.62
2017-10-02T09:35:02.324Z,81.67
2017-10-02T09:37:30.625Z,81.01
2017-10-02T09:39:58.953Z,80.66
2017-10-02T09:42:27.266Z,81.03
2017-10-02T09:44:55.587Z,80.96
2017-10-02T09:47:23.898Z,81.46
2017-10-02T09:49:52.214Z,81.88
2017-10-02T09:52:20.509Z,81.63
2017-10-02T09:54:48.842Z,81.23
2017-10-02T09:57:17.185Z,81.69
2017-10-02T09:59:45.564Z,82.35
2017-10-02T10:02:13.880Z,82.72
2017-10-02T10:04:42.193Z,83.20
2017-10-02T10:07:10.493Z,83.79
2017-10-02T10:09:38.808Z,84.13
2017-10-02T10:12:07.105Z,84.71
2017-10-02T10:14:35.426Z,84.68
2017-10-02T10:17:03.762Z,84.58
2017-10-02T10:19:32.107Z,85.13
2017-10-02T10:22:00.410Z,84.76
2017-10-02T10:24:28.741Z,85.25
2017-10-02T10:26:57.045Z,85.41
2017-10-02T10:29:25.341Z,84.88
2017-10-02T10:31:53.667Z,85.88
2017-10-02T10:34:21.983Z,85.27
2017-10-02T10:36:50.306Z,85.51
2017-10-02T10:39:18.623Z,85.72
2017-10-02T10:41:46.939Z,84.95
2017-10-02T10:44:15.255Z,85.55
2017-10-02T10:46:43.598Z,84.90
2017-10-02T10:49:12.681Z,85.32
2017-10-02T10:51:40.998Z,85.19
2017-10-02T10:54:09.310Z,85.29
2017-10-02T10:56:37.630Z,86.17
2017-10-02T10:59:06.715Z,86.32
2017-10-02T11:01:35.056Z,86.67
2017-10-02T11:04:03.382Z,86.78
2017-10-02T11:06:32.466Z,86.66
2017-10-02T11:09:00.794Z,87.17
2017-10-02T11:11:29.101Z,87.15
2017-10-02T11:13:57.431Z,87.26
2017-10-02T11:16:25.742Z,87.07
2017-10-02T11:18:54.070Z,86.85
2017-10-02T11:21:23.223Z,86.95
2017-10-02T11:23:51.568Z,87.55
2017-10-02T11:26:19.887Z,87.64
2017-10-02T11:28:48.207Z,87.79
2017-10-02T11:31:16.522Z,87.76
2017-10-02T11:33:44.909Z,88.13
2017-10-02T11:36:13.217Z,86.75
2017-10-02T11:38:41.539Z,86.40
2017-10-02T11:41:09.857Z,86.75
2017-10-02T11:43:38.170Z,87.67
2017-10-02T11:46:07.245Z,86.18
2017-10-02T11:48:35.564Z,85.76
2017-10-02T11:51:03.874Z,87.10
2017-10-02T11:53:32.237Z,85.23
2017-10-02T11:56:00.549Z,86.21
2017-10-02T11:58:28.864Z,85.87
2017-10-02T12:00:57.262Z,86.29
2017-10-02T12:03:25.570Z,85.51
2017-10-02T12:05:53.905Z,86.63
2017-10-02T12:08:22.211Z,86.79
2017-10-02T12:10:50.553Z,86.47
2017-10-02T12:13:18.867Z,86.91
2017-10-02T12:15:47.207Z,86.42
2017-10-02T12:18:15.514Z,86.07
2017-10-02T12:20:43.832Z,85.98
2017-10-02T12:23:12.139Z,85.22
2017-10-02T12:25:40.566Z,84.95
2017-10-02T12:28:08.881Z,85.39
2017-10-02T12:30:37.450Z,86.68
2017-10-02T12:33:06.525Z,86.51
2017-10-02T12:35:34.861Z,86.60
2017-10-02T12:38:03.174Z,87.05
2017-10-02T12:40:31.480Z,86.52
2017-10-02T12:43:00.566Z,86.99
2017-10-02T12:45:28.878Z,86.79
2017-10-02T12:47:57.208Z,87.36
2017-10-02T12:50:25.517Z,87.30
2017-10-02T12:52:54.585Z,87.41
2017-10-02T12:55:22.886Z,87.63
2017-10-02T12:57:51.975Z,87.38
2017-10-02T13:00:20.291Z,87.48
2017-10-02T13:02:48.599Z,88.13
2017-10-02T13:05:16.914Z,89.12
2017-10-02T13:07:45.986Z,88.81
2017-10-02T13:10:14.285Z,89.06
2017-10-02T13:12:43.375Z,88.44
2017-10-02T13:15:12.443Z,88.36
2017-10-02T13:17:40.751Z,88.67
2017-10-02T13:20:09.822Z,88.77
2017-10-02T13:22:38.138Z,89.53
2017-10-02T13:25:06.451Z,89.48
2017-10-02T13:27:34.786Z,89.79
2017-10-02T13:30:03.857Z,89.19
2017-10-02T13:32:32.177Z,89.31
2017-10-02T13:35:00.489Z,89.17
2017-10-02T13:37:28.797Z,89.10
2017-10-02T13:39:57.108Z,89.29
2017-10-02T13:42:25.404Z,89.15
2017-10-02T13:44:53.715Z,89.00
2017-10-02T13:47:22.018Z,87.77
2017-10-02T13:49:51.098Z,87.42
2017-10-02T13:52:19.413Z,87.29
2017-10-02T13:54:47.718Z,87.59
2017-10-02T13:57:16.094Z,87.83
2017-10-02T13:59:45.188Z,87.42
2017-10-02T14:02:13.503Z,87.09
2017-10-02T14:04:41.814Z,86.76
2017-10-02T14:07:10.124Z,86.25
2017-10-02T14:09:38.434Z,85.78
2017-10-02T14:12:06.754Z,85.58
2017-10-02T14:14:35.082Z,84.77
2017-10-02T14:17:03.402Z,84.29
2017-10-02T14:19:32.101Z,84.34
2017-10-02T14:22:00.401Z,83.23
2017-10-02T14:24:28.735Z,82.61
2017-10-02T14:26:57.054Z,80.94
2017-10-02T14:29:25.392Z,81.43
2017-10-02T14:31:53.711Z,82.20
2017-10-02T14:34:22.018Z,82.21
2017-10-02T14:36:50.343Z,82.17
2017-10-02T14:39:18.637Z,81.74
2017-10-02T14:41:46.967Z,81.08
2017-10-02T14:44:16.038Z,81.86
2017-10-02T14:46:44.353Z,82.04
2017-10-02T14:49:12.657Z,83.37
2017-10-02T14:51:40.965Z,82.73
2017-10-02T14:54:09.281Z,83.67
2017-10-02T14:56:37.590Z,83.76
2017-10-02T14:59:05.896Z,83.55
2017-10-02T15:01:34.214Z,83.78
2017-10-02T15:04:02.526Z,83.18
2017-10-02T15:06:30.869Z,83.49
2017-10-02T15:08:59.179Z,83.79
2017-10-02T15:11:27.533Z,83.60
2017-10-02T15:13:55.844Z,84.87
2017-10-02T15:16:24.146Z,84.07
2017-10-02T15:18:52.464Z,83.78
2017-10-02T15:21:20.771Z,84.02
2017-10-02T15:23:49.092Z,84.04
2017-10-02T15:26:18.166Z,84.45
2017-10-02T15:28:46.474Z,84.39
2017-10-02T15:31:15.577Z,84.91
2017-10-02T15:33:43.893Z,84.92
2017-10-02T15:36:12.204Z,84.72
2017-10-02T15:38:40.517Z,85.07
2017-10-02T15:41:08.825Z,84.65
2017-10-02T15:43:37.152Z,85.28
2017-10-02T15:46:06.224Z,85.98
2017-10-02T15:48:34.547Z,86.11
2017-10-02T15:51:02.873Z,85.46
2017-10-02T15:53:31.199Z,85.48
2017-10-02T15:55:59.505Z,85.42
2017-10-02T15:58:27.832Z,85.20
2017-10-02T16:00:56.911Z,85.57
2017-10-02T16:03:25.259Z,86.16
2017-10-02T16:05:53.583Z,86.81
2017-10-02T16:08:22.666Z,87.23
2017-10-02T16:10:50.994Z,87.76
2017-10-02T16:13:19.301Z,88.06
2017-10-02T16:15:47.628Z,88.25
2017-10-02T16:18:15.927Z,88.17
2017-10-02T16:20:44.253Z,88.48
2017-10-02T16:23:12.559Z,88.80
2017-10-02T16:25:40.885Z,88.60
2017-10-02T16:28:09.185Z,88.33
2017-10-02T16:30:37.499Z,88.33
2017-10-02T16:33:05.816Z,88.99
2017-10-02T16:35:34.129Z,89.28
2017-10-02T16:38:03.206Z,88.63
2017-10-02T16:40:31.526Z,89.03
2017-10-02T16:42:59.837Z,89.20
2017-10-02T16:45:28.148Z,89.43
2017-10-02T16:47:57.231Z,89.80
2017-10-02T16:50:25.546Z,89.67
2017-10-02T16:52:53.863Z,89.59
2017-10-02T16:55:22.198Z,89.61
2017-10-02T16:57:50.502Z,89.54
2017-10-02T17:00:18.811Z,89.49
2017-10-02T17:02:47.133Z,89.49
2017-10-02T17:05:15.439Z,89.29
2017-10-02T17:10:19.100Z,89.08
2017-10-02T17:12:47.404Z,88.86
2017-10-02T17:15:15.700Z,88.85
2017-10-02T17:17:44.018Z,88.84
2017-10-02T17:20:12.326Z,88.60
2017-10-02T17:22:41.416Z,88.75
2017-10-02T17:25:10.514Z,88.75
2017-10-02T17:27:39.609Z,88.89
2017-10-02T17:30:08.698Z,89.07
2017-10-02T17:32:37.783Z,89.36
2017-10-02T17:35:06.080Z,89.11
2017-10-02T17:37:35.162Z,88.88
2017-10-02T17:40:04.244Z,88.94
2017-10-02T17:42:32.570Z,88.99
2017-10-02T17:45:00.892Z,88.86
2017-10-02T17:47:29.223Z,88.67
2017-10-02T17:49:57.534Z,88.10
2017-10-02T17:52:25.878Z,88.06
2017-10-02T17:54:54.202Z,87.91
2017-10-02T17:57:22.506Z,87.88
2017-10-02T17:59:51.583Z,87.99
2017-10-02T18:02:19.887Z,87.85
2017-10-02T18:04:48.983Z,88.12
2017-10-02T18:07:18.049Z,87.90
2017-10-02T18:09:46.361Z,87.77
2017-10-02T18:12:14.669Z,87.74
2017-10-02T18:14:42.980Z,87.70
2017-10-02T18:17:11.286Z,87.57
2017-10-02T18:19:39.603Z,87.67
2017-10-02T18:22:07.905Z,87.72
2017-10-02T18:24:36.230Z,87.65
2017-10-02T18:27:04.543Z,87.59
2017-10-02T18:29:32.882Z,87.48
2017-10-02T18:32:01.240Z,87.57
2017-10-02T18:34:30.327Z,87.62
2017-10-02T18:36:59.410Z,87.63
2017-10-02T18:39:27.753Z,87.59
2017-10-02T18:41:56.064Z,87.43
2017-10-02T18:44:24.441Z,87.40
2017-10-02T18:46:52.761Z,87.45
2017-10-02T18:49:22.637Z,87.53
2017-10-02T18:51:50.946Z,87.35
2017-10-02T18:54:20.037Z,87.61
2017-10-02T18:56:49.126Z,87.71
2017-10-02T18:59:18.198Z,87.84
2017-10-02T19:01:46.530Z,88.01
2017-10-02T19:04:14.835Z,88.23
2017-10-02T19:06:43.157Z,87.91
2017-10-02T19:09:12.244Z,87.81
2017-10-02T19:11:41.333Z,87.56
2017-10-02T19:14:10.427Z,86.93
2017-10-02T19:16:38.737Z,86.47
2017-10-02T19:19:07.049Z,86.15
2017-10-02T19:21:35.366Z,86.04
2017-10-02T19:24:03.669Z,86.01
2017-10-02T19:26:32.357Z,85.63
2017-10-02T19:29:00.681Z,85.46
2017-10-02T19:31:28.979Z,85.34
2017-10-02T19:33:58.098Z,85.29
2017-10-02T19:36:26.401Z,85.39
2017-10-02T19:38:54.713Z,85.24
2017-10-02T19:41:23.022Z,84.90
2017-10-02T19:43:51.360Z,85.14
2017-10-02T19:46:19.669Z,84.97
2017-10-02T19:48:48.749Z,84.74
2017-10-02T19:51:17.058Z,84.85
2017-10-02T19:53:45.373Z,85.03
2017-10-02T19:56:13.670Z,85.20
2017-10-02T19:58:41.988Z,85.14
2017-10-02T20:01:10.286Z,85.20
2017-10-02T20:03:38.634Z,85.21
2017-10-02T20:06:07.713Z,84.98
2017-10-02T20:08:36.803Z,85.03
2017-10-02T20:11:05.638Z,84.72
2017-10-02T20:13:33.949Z,84.76
2017-10-02T20:16:02.291Z,84.78
2017-10-02T20:18:30.603Z,84.62
2017-10-02T20:20:58.932Z,84.70
2017-10-02T20:23:27.241Z,84.64
2017-10-02T20:25:55.555Z,84.79
2017-10-02T20:28:23.879Z,84.70
2017-10-02T20:30:52.207Z,84.89
2017-10-02T20:33:20.514Z,85.00
2017-10-02T20:35:49.603Z,85.02
2017-10-02T20:38:18.683Z,84.91
2017-10-02T20:40:47.320Z,84.98
2017-10-02T20:43:15.617Z,84.92
2017-10-02T20:45:43.941Z,85.10
2017-10-02T20:48:12.281Z,85.35
2017-10-02T20:50:41.385Z,85.44
2017-10-02T20:53:09.717Z,85.34
2017-10-02T20:55:38.075Z,85.07
2017-10-02T20:58:06.403Z,85.00
2017-10-02T21:00:34.721Z,85.01
2017-10-02T21:03:03.810Z,85.15
2017-10-02T21:05:32.898Z,84.97
2017-10-02T21:08:01.977Z,84.71
2017-10-02T21:10:30.286Z,84.82
2017-10-02T21:12:59.362Z,85.03
2017-10-02T21:15:27.674Z,85.15
2017-10-02T21:17:55.988Z,85.48
2017-10-02T21:20:24.298Z,85.18
2017-10-02T21:22:52.618Z,84.76
2017-10-02T21:25:20.922Z,84.71
2017-10-02T21:27:49.240Z,84.63
2017-10-02T21:30:18.320Z,84.61
2017-10-02T21:32:46.636Z,84.48
2017-10-02T21:35:14.943Z,84.62
2017-10-02T21:37:43.269Z,84.63
2017-10-02T21:40:11.594Z,84.27
2017-10-02T21:42:39.919Z,84.51
2017-10-02T21:45:08.998Z,85.46
2017-10-02T21:47:37.343Z,86.27
2017-10-02T21:50:05.646Z,85.92
2017-10-02T21:52:33.950Z,86.35
2017-10-02T21:55:03.031Z,86.92
2017-10-02T21:57:31.344Z,87.41
2017-10-02T21:59:59.653Z,87.00
2017-10-02T22:02:27.965Z,87.40
2017-10-02T22:04:57.056Z,87.33
2017-10-02T22:07:25.379Z,87.39
2017-10-02T22:09:53.713Z,87.50
2017-10-02T22:12:22.028Z,87.91
2017-10-02T22:14:50.348Z,88.07
2017-10-02T22:17:18.659Z,88.11
2017-10-02T22:19:47.767Z,88.72
2017-10-02T22:22:16.838Z,89.92
2017-10-02T22:24:45.937Z,90.60
2017-10-02T22:27:15.006Z,86.95
2017-10-02T22:29:43.318Z,87.08
2017-10-02T22:32:12.385Z,86.37
2017-10-02T22:34:40.722Z,87.27
2017-10-02T22:37:09.601Z,86.74
2017-10-02T22:39:37.969Z,88.29
2017-10-02T22:42:07.047Z,88.77
2017-10-02T22:44:36.129Z,89.29
2017-10-02T22:47:04.441Z,89.68
2017-10-02T22:49:32.754Z,89.50
2017-10-02T22:52:01.068Z,89.40
2017-10-02T22:54:29.369Z,89.64
2017-10-02T22:56:58.459Z,89.67
2017-10-02T22:59:27.541Z,89.54
2017-10-02T23:01:56.678Z,89.51
2017-10-02T23:04:24.986Z,90.49
2017-10-02T23:06:53.315Z,89.91
2017-10-02T23:09:21.622Z,89.96
2017-10-02T23:11:49.933Z,90.54
2017-10-02T23:14:18.246Z,90.21
2017-10-02T23:16:46.560Z,90.41
2017-10-02T23:19:14.863Z,90.61
2017-10-02T23:21:43.182Z,90.92
2017-10-02T23:24:11.494Z,91.26
2017-10-02T23:26:39.838Z,91.62
2017-10-02T23:29:08.149Z,91.33
2017-10-02T23:31:36.474Z,91.34
2017-10-02T23:34:05.561Z,91.50
2017-10-02T23:36:34.654Z,89.94
2017-10-02T23:39:03.754Z,89.83
2017-10-02T23:41:32.853Z,89.65
2017-10-02T23:44:01.930Z,89.54
2017-10-02T23:46:31.034Z,89.56
2017-10-02T23:49:00.121Z,89.50
2017-10-02T23:51:28.433Z,89.07
2017-10-02T23:53:56.755Z,89.38
2017-10-02T23:56:25.058Z,89.55
2017-10-02T23:58:53.376Z,89.80
